Time;durP1;ratioP1;P1;durP2;ratioP2;P2;SDS_P1;SDS_P2;PMS_P1;PMS_P2;Temp;Humidity;BMP_temperature;BMP_pressure;BME280_temperature;BME280_humidity;BME280_pressure;Samples;Min_cycle;Max_cycle;Signal;HPM_P1;HPM_P2
2022/11/17 00:01:31;;;;;;;6.95;6.45;;;8.40;99.90;;;;;;5132161;27;20301;-90
2022/11/17 00:04:01;;;;;;;8.43;7.60;;;8.40;99.90;;;;;;5131466;27;20203;-89
2022/11/17 00:06:29;;;;;;;7.20;6.60;;;8.40;99.90;;;;;;5131593;27;20207;-89
2022/11/17 00:09:05;;;;;;;8.20;7.40;;;8.30;99.90;;;;;;5131402;27;20206;-89
2022/11/17 00:14:31;;;;;;;8.02;7.10;;;8.40;99.90;;;;;;5131525;27;20213;-89
2022/11/17 00:14:32;;;;;;;8.82;7.88;;;8.40;99.90;;;;;;5131426;27;20211;-89
2022/11/17 00:17:04;;;;;;;7.00;6.40;;;8.40;99.90;;;;;;5131515;28;20243;-88
2022/11/17 00:22:24;;;;;;;8.20;7.50;;;8.40;99.90;;;;;;5134182;28;20225;-88
2022/11/17 00:24:54;;;;;;;7.85;7.18;;;8.40;99.90;;;;;;5134383;28;20203;-89
2022/11/17 00:27:27;;;;;;;7.47;6.78;;;8.50;99.90;;;;;;5134255;28;20194;-89
2022/11/17 00:29:57;;;;;;;6.97;6.38;;;8.40;99.90;;;;;;5134683;28;20198;-89
2022/11/17 00:35:25;;;;;;;8.15;7.15;;;8.40;99.90;;;;;;5086632;28;20213;-89
2022/11/17 00:40:39;;;;;;;10.02;6.60;;;8.40;99.90;;;;;;5134076;28;20233;-89
2022/11/17 00:43:10;;;;;;;7.40;6.80;;;8.40;99.90;;;;;;5133675;28;20230;-89
2022/11/17 00:45:39;;;;;;;6.63;6.13;;;8.50;99.90;;;;;;5133928;28;20304;-89
2022/11/17 00:48:08;;;;;;;7.55;6.63;;;8.40;99.90;;;;;;5133825;28;20294;-89
2022/11/17 00:50:38;;;;;;;6.28;5.78;;;8.40;99.90;;;;;;5134104;28;20191;-89
2022/11/17 00:53:06;;;;;;;6.63;6.03;;;8.40;99.90;;;;;;5133659;28;20287;-89
2022/11/17 00:55:34;;;;;;;7.15;6.45;;;8.50;99.90;;;;;;5134941;27;20209;-88
2022/11/17 00:58:03;;;;;;;6.75;6.15;;;8.40;99.90;;;;;;5137574;27;20199;-89
2022/11/17 01:00:31;;;;;;;7.55;6.95;;;8.40;99.90;;;;;;5137738;27;20287;-89
2022/11/17 01:03:02;;;;;;;6.55;6.03;;;8.40;99.90;;;;;;5117191;28;20215;-90
2022/11/17 01:05:30;;;;;;;7.68;6.97;;;8.40;99.90;;;;;;5129146;27;20278;-89
2022/11/17 01:08:04;;;;;;;8.25;7.45;;;8.50;99.90;;;;;;5137446;27;20286;-89
2022/11/17 01:10:38;;;;;;;7.43;6.72;;;8.40;99.90;;;;;;5137863;27;20208;-89
2022/11/17 01:13:13;;;;;;;7.72;7.03;;;8.40;99.90;;;;;;5137901;27;20290;-89
2022/11/17 01:15:42;;;;;;;7.95;7.22;;;8.40;99.90;;;;;;5137953;27;20259;-89
2022/11/17 01:18:15;;;;;;;7.28;6.68;;;8.40;99.90;;;;;;5137842;27;20199;-90
2022/11/17 01:20:52;;;;;;;8.05;7.38;;;8.40;99.90;;;;;;5137318;27;20222;-90
2022/11/17 01:23:28;;;;;;;8.35;7.32;;;8.40;99.90;;;;;;5137819;27;20229;-89
2022/11/17 01:26:09;;;;;;;7.55;6.85;;;8.40;99.90;;;;;;5137948;27;20195;-89
2022/11/17 01:28:41;;;;;;;7.55;6.93;;;8.40;99.90;;;;;;5137377;27;20254;-90
2022/11/17 01:31:17;;;;;;;6.53;5.93;;;8.40;99.90;;;;;;5137423;27;20199;-89
2022/11/17 01:33:52;;;;;;;7.55;6.85;;;8.40;99.90;;;;;;5136972;27;20199;-89
2022/11/17 01:36:27;;;;;;;8.05;7.03;;;8.50;99.90;;;;;;5137278;27;20255;-89
2022/11/17 01:39:09;;;;;;;6.55;6.05;;;8.40;99.90;;;;;;5136946;27;20277;-90
2022/11/17 01:41:37;;;;;;;8.27;7.47;;;8.40;99.90;;;;;;5137319;27;20211;-89
2022/11/17 01:44:38;;;;;;;9.70;7.10;;;8.40;99.90;;;;;;5136641;27;20214;-89
2022/11/17 01:47:15;;;;;;;8.13;7.40;;;8.40;99.90;;;;;;5136585;27;20195;-89
2022/11/17 01:49:44;;;;;;;7.15;6.60;;;8.40;99.90;;;;;;5137518;27;20286;-89
2022/11/17 01:52:14;;;;;;;8.13;7.32;;;8.40;99.90;;;;;;5136959;27;20224;-90
2022/11/17 01:54:48;;;;;;;8.02;7.30;;;8.40;99.90;;;;;;5137364;27;20203;-89
2022/11/17 01:57:25;;;;;;;8.52;7.80;;;8.50;99.90;;;;;;5136208;27;20190;-89
2022/11/17 02:00:04;;;;;;;8.38;7.55;;;8.50;99.90;;;;;;5136858;27;20285;-89
2022/11/17 02:02:34;;;;;;;8.23;7.53;;;8.40;99.90;;;;;;5137085;27;20219;-90
2022/11/17 02:05:16;;;;;;;7.57;6.97;;;8.40;99.90;;;;;;5136928;27;20303;-89
2022/11/17 02:07:52;;;;;;;7.55;6.95;;;8.40;99.90;;;;;;5136366;27;20202;-89
2022/11/17 02:10:37;;;;;;;8.93;7.95;;;8.30;99.90;;;;;;5134019;27;20256;-89
2022/11/17 02:13:07;;;;;;;8.90;7.88;;;8.30;99.90;;;;;;5136547;27;20211;-90
2022/11/17 02:15:38;;;;;;;9.90;8.77;;;8.30;99.90;;;;;;5136745;27;20195;-89
2022/11/17 02:18:10;;;;;;;8.45;7.57;;;8.30;99.90;;;;;;5137035;27;20271;-89
2022/11/17 02:24:57;;;;;;;8.07;7.28;;;8.30;99.90;;;;;;5127275;27;20202;-89
2022/11/17 02:27:55;;;;;;;8.77;7.88;;;8.30;99.90;;;;;;5136318;27;20294;-91
2022/11/17 02:30:36;;;;;;;24.15;8.73;;;8.30;99.90;;;;;;5136348;27;20198;-91
2022/11/17 02:33:21;;;;;;;9.07;8.18;;;8.30;99.90;;;;;;5136438;27;20226;-89
2022/11/17 02:36:12;;;;;;;9.10;7.85;;;8.30;99.90;;;;;;5115825;28;20245;-89
2022/11/17 02:38:54;;;;;;;8.38;7.60;;;8.30;99.90;;;;;;5126050;27;20199;-89
2022/11/17 02:41:32;;;;;;;8.63;7.82;;;8.30;99.90;;;;;;5135418;27;20214;-88
2022/11/17 02:44:15;;;;;;;8.80;7.90;;;8.30;99.90;;;;;;5135823;27;20203;-89
2022/11/17 02:46:48;;;;;;;12.68;8.50;;;8.30;99.90;;;;;;5135992;27;20202;-89
2022/11/17 02:49:31;;;;;;;9.00;8.10;;;8.30;99.90;;;;;;5115293;28;20204;-89
2022/11/17 02:52:01;;;;;;;8.80;7.97;;;8.30;99.90;;;;;;5120005;27;20279;-89
2022/11/17 02:54:32;;;;;;;9.77;7.72;;;8.30;99.90;;;;;;5135886;27;20279;-89
2022/11/17 02:57:05;;;;;;;7.57;6.93;;;8.30;99.90;;;;;;5135787;27;20290;-89
2022/11/17 02:59:46;;;;;;;11.30;7.22;;;8.40;99.90;;;;;;5135711;27;20199;-89
2022/11/17 03:02:38;;;;;;;9.13;7.72;;;8.30;99.90;;;;;;5134724;27;20241;-89
2022/11/17 03:05:17;;;;;;;10.02;7.88;;;8.30;99.90;;;;;;5135622;27;20199;-89
2022/11/17 03:07:59;;;;;;;11.20;7.75;;;8.30;99.90;;;;;;5135198;27;20207;-89
2022/11/17 03:10:36;;;;;;;7.90;7.15;;;8.40;99.90;;;;;;5135321;27;20195;-89
2022/11/17 03:13:12;;;;;;;8.07;7.28;;;8.40;99.90;;;;;;5135626;27;20227;-89
2022/11/17 03:16:11;;;;;;;8.75;7.95;;;8.40;99.90;;;;;;5142368;27;20577;-89
2022/11/17 03:18:51;;;;;;;10.77;8.30;;;8.40;99.90;;;;;;5152143;27;20210;-88
2022/11/17 03:21:49;;;;;;;8.35;7.47;;;8.40;99.90;;;;;;5135187;27;20209;-89
2022/11/17 03:24:24;;;;;;;7.93;7.28;;;8.40;99.90;;;;;;5111147;28;20214;-87
2022/11/17 03:27:07;;;;;;;7.80;7.00;;;8.40;99.90;;;;;;5111021;28;20245;-86
2022/11/17 03:29:42;;;;;;;7.40;6.65;;;8.40;99.90;;;;;;5110924;28;20211;-87
2022/11/17 03:32:18;;;;;;;7.53;6.80;;;8.40;99.90;;;;;;5111385;28;20227;-87
2022/11/17 03:34:55;;;;;;;6.97;6.38;;;8.50;99.90;;;;;;5111089;28;20223;-87
2022/11/17 03:37:38;;;;;;;7.82;7.03;;;8.50;99.90;;;;;;5111023;28;20207;-87
2022/11/17 03:40:14;;;;;;;6.15;5.45;;;8.50;99.90;;;;;;5129325;28;20205;-87
2022/11/17 03:42:55;;;;;;;7.57;6.43;;;8.50;99.90;;;;;;5110605;27;20219;-88
2022/11/17 03:45:26;;;;;;;7.82;6.55;;;8.50;99.90;;;;;;5111218;28;20194;-92
2022/11/17 03:48:03;;;;;;;7.07;6.40;;;8.50;99.90;;;;;;5111006;28;20206;-88
2022/11/17 03:50:40;;;;;;;7.15;6.53;;;8.50;99.90;;;;;;5111000;28;20199;-90
2022/11/17 03:53:18;;;;;;;7.05;6.38;;;8.50;99.90;;;;;;5110402;28;20229;-90
2022/11/17 03:56:08;;;;;;;7.72;6.93;;;8.50;99.90;;;;;;5110523;28;20294;-90
2022/11/17 03:58:46;;;;;;;6.78;6.07;;;8.50;99.90;;;;;;5110626;28;20204;-89
2022/11/17 04:01:23;;;;;;;11.80;6.93;;;8.50;99.90;;;;;;5111327;28;20268;-90
2022/11/17 04:05:04;;;;;;;6.78;6.07;;;8.50;99.90;;;;;;5111709;28;20215;-89
2022/11/17 04:07:29;;;;;;;6.25;5.68;;;8.50;99.90;;;;;;5110269;28;20200;-89
2022/11/17 04:10:02;;;;;;;5.72;5.22;;;8.50;99.90;;;;;;5128033;28;20211;-89
2022/11/17 04:18:26;;;;;;;6.18;5.57;;;8.50;99.90;;;;;;5122114;28;20199;-90
2022/11/17 04:21:30;;;;;;;6.53;5.93;;;8.50;99.90;;;;;;5130659;28;20227;-90
2022/11/17 04:24:05;;;;;;;7.03;6.38;;;8.40;99.90;;;;;;5130703;28;20199;-90
2022/11/17 04:29:32;;;;;;;6.28;5.75;;;8.30;99.90;;;;;;5116889;28;20286;-89
2022/11/17 04:32:06;;;;;;;6.63;6.03;;;8.30;99.90;;;;;;5116639;28;20220;-89
2022/11/17 04:34:41;;;;;;;6.57;5.82;;;8.30;99.90;;;;;;5116563;28;20220;-89
2022/11/17 04:37:17;;;;;;;6.18;5.45;;;8.20;99.90;;;;;;5100318;28;20212;-88
2022/11/17 04:39:53;;;;;;;6.88;5.90;;;8.20;99.90;;;;;;5097151;28;20316;-89
2022/11/17 04:42:23;;;;;;;14.75;6.55;;;8.20;99.90;;;;;;5116669;28;20226;-89
2022/11/17 04:44:54;;;;;;;6.50;5.82;;;8.20;99.90;;;;;;5116193;28;20204;-89
2022/11/17 04:47:29;;;;;;;8.00;6.30;;;8.20;99.90;;;;;;5116436;28;20202;-90
2022/11/17 04:50:07;;;;;;;6.75;5.90;;;8.10;99.90;;;;;;5116129;28;20235;-90
2022/11/17 04:52:48;;;;;;;9.43;6.95;;;8.10;99.90;;;;;;5116385;28;20219;-91
2022/11/17 04:55:30;;;;;;;6.93;6.03;;;8.10;99.90;;;;;;5116001;28;20223;-90
2022/11/17 04:58:07;;;;;;;6.30;5.78;;;8.10;99.90;;;;;;5115907;28;20211;-90
2022/11/17 05:00:40;;;;;;;6.40;5.78;;;8.10;99.90;;;;;;5116408;28;20201;-89
2022/11/17 05:03:16;;;;;;;7.65;6.85;;;8.10;99.90;;;;;;5116103;28;20230;-91
2022/11/17 05:05:55;;;;;;;8.98;5.80;;;8.00;99.90;;;;;;5116145;28;20267;-89
2022/11/17 05:08:34;;;;;;;7.95;6.53;;;8.10;99.90;;;;;;5109610;28;20192;-92
2022/11/17 05:14:11;;;;;;;7.28;6.07;;;8.00;99.90;;;;;;5109638;28;20219;-90
2022/11/17 05:19:40;;;;;;;6.20;5.70;;;7.90;99.90;;;;;;5115865;28;20235;-89
2022/11/17 05:25:16;;;;;;;6.95;6.28;;;7.90;99.90;;;;;;5115767;28;20249;-90
2022/11/17 05:27:58;;;;;;;6.40;5.72;;;7.90;99.90;;;;;;5115347;28;20212;-91
2022/11/17 05:31:12;;;;;;;10.27;6.00;;;7.90;99.90;;;;;;5115541;28;20303;-91
2022/11/17 05:33:53;;;;;;;7.20;5.80;;;7.90;99.90;;;;;;5115459;28;20223;-90
2022/11/17 05:36:36;;;;;;;5.65;5.15;;;7.80;99.90;;;;;;5117719;28;20219;-90
2022/11/17 05:39:34;;;;;;;6.93;6.32;;;7.80;99.90;;;;;;5114630;28;20211;-91
2022/11/17 05:42:40;;;;;;;7.57;6.38;;;7.80;99.90;;;;;;5115585;28;20231;-89
2022/11/17 05:45:30;;;;;;;7.05;6.40;;;7.80;99.90;;;;;;5115703;28;20204;-89
2022/11/17 05:48:22;;;;;;;7.20;6.57;;;7.80;99.90;;;;;;5115120;28;20203;-91
2022/11/17 05:50:56;;;;;;;9.50;6.95;;;7.70;99.90;;;;;;5115153;28;20212;-89
2022/11/17 05:53:35;;;;;;;7.90;6.95;;;7.80;99.90;;;;;;5114723;28;20216;-90
2022/11/17 05:56:30;;;;;;;8.85;6.60;;;7.80;99.90;;;;;;5104346;27;20216;-90
2022/11/17 05:59:38;;;;;;;7.93;7.13;;;7.80;99.90;;;;;;5093272;28;20208;-90
2022/11/17 06:02:35;;;;;;;8.18;6.50;;;7.80;99.90;;;;;;5073986;28;20225;-90
2022/11/17 06:05:30;;;;;;;6.82;6.20;;;7.80;99.90;;;;;;5105022;28;20196;-91
2022/11/17 06:08:23;;;;;;;8.05;6.38;;;7.80;99.90;;;;;;5114363;28;20245;-90
2022/11/17 06:11:21;;;;;;;8.77;6.93;;;7.80;99.90;;;;;;5094903;27;20200;-91
2022/11/17 06:14:00;;;;;;;8.13;7.32;;;7.80;99.90;;;;;;5094626;28;20212;-91
2022/11/17 06:16:38;;;;;;;9.15;6.75;;;7.80;99.90;;;;;;5094297;28;20226;-92
2022/11/17 06:19:09;;;;;;;7.85;6.03;;;7.80;99.90;;;;;;5080344;28;20203;-88
2022/11/17 06:21:37;;;;;;;8.43;6.72;;;7.80;99.90;;;;;;5094102;28;20211;-89
2022/11/17 06:24:26;;;;;;;6.55;5.85;;;7.80;99.90;;;;;;5093817;28;20204;-88
2022/11/17 06:26:55;;;;;;;7.10;6.40;;;7.80;99.90;;;;;;5093728;28;20242;-86
2022/11/17 06:29:24;;;;;;;9.57;7.13;;;7.80;99.90;;;;;;5094404;28;20295;-92
2022/11/17 06:31:57;;;;;;;8.75;7.43;;;7.80;99.90;;;;;;5093767;28;20239;-88
2022/11/17 06:34:27;;;;;;;10.57;6.75;;;7.80;99.90;;;;;;5094417;28;20210;-90
2022/11/17 06:36:59;;;;;;;7.80;7.05;;;7.80;99.90;;;;;;5092979;28;20224;-86
2022/11/17 06:40:12;;;;;;;8.25;7.45;;;7.80;99.90;;;;;;5094351;28;20204;-90
2022/11/17 06:45:27;;;;;;;10.82;9.55;;;7.90;99.90;;;;;;5073977;28;20208;-84
2022/11/17 06:47:56;;;;;;;10.07;9.07;;;7.90;99.90;;;;;;5073454;28;20205;-90
2022/11/17 06:50:25;;;;;;;11.25;9.73;;;7.90;99.90;;;;;;5077132;28;20264;-88
2022/11/17 06:52:59;;;;;;;15.95;9.13;;;7.90;99.90;;;;;;5074078;28;20225;-89
2022/11/17 06:55:31;;;;;;;8.82;7.88;;;7.90;99.90;;;;;;5072638;28;20204;-89
2022/11/17 06:58:02;;;;;;;13.07;8.88;;;7.90;99.90;;;;;;5072860;28;20256;-90
2022/11/17 07:00:31;;;;;;;8.80;7.97;;;8.00;99.90;;;;;;5072460;28;20300;-90
2022/11/17 07:03:02;;;;;;;8.68;7.78;;;8.00;99.90;;;;;;5072427;28;20294;-88
2022/11/17 07:05:31;;;;;;;7.97;7.22;;;8.00;99.90;;;;;;5072395;28;20212;-89
2022/11/17 07:08:01;;;;;;;8.60;7.80;;;8.00;99.90;;;;;;5072291;28;20232;-90
2022/11/17 07:10:30;;;;;;;8.02;7.00;;;8.00;99.90;;;;;;5072299;28;20258;-89
2022/11/17 07:12:59;;;;;;;8.48;7.40;;;8.10;99.90;;;;;;5072673;28;20288;-90
2022/11/17 07:15:27;;;;;;;7.60;6.80;;;8.10;99.90;;;;;;5072307;28;20213;-90
2022/11/17 07:17:57;;;;;;;7.53;6.82;;;8.10;99.90;;;;;;5072224;28;20200;-90
2022/11/17 07:20:31;;;;;;;8.48;7.57;;;8.10;99.90;;;;;;5072655;28;20203;-90
2022/11/17 07:23:00;;;;;;;10.25;9.05;;;8.20;99.90;;;;;;5072844;28;20229;-89
2022/11/17 07:25:35;;;;;;;9.75;8.75;;;8.20;99.90;;;;;;5092678;28;20204;-93
2022/11/17 07:28:21;;;;;;;;;;;;;;;;;;;;;
2022/11/17 07:30:55;;;;;;;10.60;9.50;;;8.30;99.90;;;;;;5091644;28;20200;-90
2022/11/17 07:33:37;;;;;;;10.32;9.32;;;8.30;99.90;;;;;;5092026;28;20220;-91
2022/11/17 07:36:27;;;;;;;11.75;9.35;;;8.30;99.90;;;;;;5096761;28;20211;-90
2022/11/17 07:39:25;;;;;;;10.13;9.13;;;8.20;99.90;;;;;;5096515;28;20221;-91
2022/11/17 07:42:08;;;;;;;10.63;9.23;;;8.20;99.90;;;;;;5105330;28;20252;-91
2022/11/17 07:45:15;;;;;;;9.88;8.98;;;8.20;99.90;;;;;;5091884;28;20210;-91
2022/11/17 07:50:39;;;;;;;11.68;9.50;;;8.20;99.90;;;;;;5080092;28;20216;-91
2022/11/17 07:53:21;;;;;;;9.57;8.63;;;8.10;99.90;;;;;;5092176;28;20243;-90
2022/11/17 07:55:49;;;;;;;9.00;8.20;;;8.10;99.90;;;;;;5071325;28;20209;-90
2022/11/17 07:58:18;;;;;;;13.65;9.40;;;8.00;99.90;;;;;;5071683;28;20197;-89
2022/11/17 08:00:46;;;;;;;10.20;9.18;;;8.10;99.90;;;;;;5072656;28;20295;-90
2022/11/17 08:03:15;;;;;;;9.50;8.57;;;8.10;99.90;;;;;;5076322;28;20232;-93
2022/11/17 08:05:43;;;;;;;9.48;8.50;;;8.00;99.90;;;;;;5088287;28;20196;-91
2022/11/17 08:08:19;;;;;;;10.02;8.95;;;8.10;99.90;;;;;;5115797;28;20234;-91
2022/11/17 08:10:48;;;;;;;9.60;8.60;;;8.10;99.90;;;;;;5095622;28;20211;-89
2022/11/17 08:13:16;;;;;;;10.23;8.90;;;8.20;99.90;;;;;;5096124;28;20270;-89
2022/11/17 08:15:44;;;;;;;8.90;8.10;;;8.20;99.90;;;;;;5095688;28;20212;-91
2022/11/17 08:18:13;;;;;;;8.48;7.68;;;8.20;99.90;;;;;;5095064;28;20274;-91
2022/11/17 08:20:41;;;;;;;10.32;8.75;;;8.20;99.90;;;;;;5095715;28;20315;-90
2022/11/17 08:23:09;;;;;;;9.27;8.38;;;8.20;99.90;;;;;;5095210;28;20224;-90
2022/11/17 08:25:39;;;;;;;9.00;8.07;;;8.30;99.90;;;;;;5095228;28;20197;-90
2022/11/17 08:28:10;;;;;;;8.77;7.97;;;8.40;99.90;;;;;;5103399;28;20195;-90
2022/11/17 08:30:49;;;;;;;11.23;8.18;;;8.50;99.90;;;;;;5115241;28;20211;-89
2022/11/17 08:33:17;;;;;;;12.50;9.18;;;8.70;99.90;;;;;;5096037;28;20224;-90
2022/11/17 08:35:46;;;;;;;8.77;7.88;;;8.80;99.90;;;;;;5102610;28;20219;-89
2022/11/17 08:38:15;;;;;;;8.77;7.90;;;8.80;99.90;;;;;;5108261;28;20223;-89
2022/11/17 08:41:05;;;;;;;8.45;7.63;;;8.90;99.90;;;;;;5105365;28;20206;-90
2022/11/17 08:46:38;;;;;;;8.70;7.10;;;9.00;99.90;;;;;;5106236;28;20188;-92
2022/11/17 08:49:06;;;;;;;9.15;7.30;;;8.90;99.90;;;;;;5095102;28;20208;-92
2022/11/17 08:51:35;;;;;;;8.32;7.03;;;9.00;99.90;;;;;;5096953;28;20272;-91
2022/11/17 08:54:03;;;;;;;13.52;8.63;;;9.00;99.90;;;;;;5095257;28;20204;-86
2022/11/17 08:56:33;;;;;;;8.52;7.70;;;9.10;99.90;;;;;;5094601;28;20245;-88
2022/11/17 08:59:02;;;;;;;10.48;8.57;;;9.10;99.90;;;;;;5098744;28;20200;-91
2022/11/17 09:01:30;;;;;;;10.90;8.85;;;9.10;99.90;;;;;;5095367;28;20231;-87
2022/11/17 09:03:59;;;;;;;9.02;8.10;;;9.20;99.90;;;;;;5093858;28;20243;-87
2022/11/17 09:06:27;;;;;;;7.38;6.70;;;9.20;99.90;;;;;;5094839;28;20232;-86
2022/11/17 09:08:55;;;;;;;7.00;6.30;;;9.30;99.90;;;;;;5094692;28;20239;-86
2022/11/17 09:11:24;;;;;;;6.65;6.05;;;9.30;99.90;;;;;;5095459;28;20209;-85
2022/11/17 09:13:55;;;;;;;8.27;7.20;;;9.30;99.90;;;;;;5094454;28;20216;-86
2022/11/17 09:16:24;;;;;;;7.28;6.55;;;9.40;99.90;;;;;;5100723;28;20203;-85
2022/11/17 09:18:55;;;;;;;9.50;6.53;;;9.40;99.90;;;;;;5097638;28;20200;-85
2022/11/17 09:21:24;;;;;;;6.97;6.13;;;9.50;99.90;;;;;;5094885;28;20208;-84
2022/11/17 09:23:55;;;;;;;6.70;6.10;;;9.50;99.90;;;;;;5098104;28;20214;-87
2022/11/17 09:26:24;;;;;;;6.88;6.28;;;9.40;99.90;;;;;;5101690;28;20305;-86
2022/11/17 09:28:52;;;;;;;6.78;6.15;;;9.50;99.90;;;;;;5098162;28;20196;-87
2022/11/17 09:31:22;;;;;;;7.25;6.55;;;9.50;99.90;;;;;;5103209;28;20204;-87
2022/11/17 09:33:50;;;;;;;7.15;6.47;;;9.50;99.90;;;;;;5096848;28;20200;-87
2022/11/17 09:36:19;;;;;;;6.22;5.63;;;9.60;99.90;;;;;;5098314;28;20206;-87
2022/11/17 09:38:49;;;;;;;10.48;6.95;;;9.50;99.90;;;;;;5093323;28;20216;-86
2022/11/17 09:41:25;;;;;;;8.52;7.65;;;9.60;99.90;;;;;;5100638;28;20291;-87
2022/11/17 09:44:12;;;;;;;8.27;7.47;;;9.50;99.90;;;;;;5108687;28;20211;-87
2022/11/17 09:46:51;;;;;;;9.27;8.38;;;9.60;99.90;;;;;;5112033;28;20218;-87
2022/11/17 09:49:45;;;;;;;12.85;9.38;;;9.60;99.90;;;;;;5094285;28;20215;-85
2022/11/17 09:52:19;;;;;;;9.20;7.82;;;9.60;99.90;;;;;;5094109;28;20228;-90
2022/11/17 09:54:53;;;;;;;11.73;7.47;;;9.60;99.90;;;;;;5093830;28;20204;-90
2022/11/17 09:57:31;;;;;;;9.05;8.18;;;9.60;99.90;;;;;;5097391;28;20222;-88
2022/11/17 10:00:05;;;;;;;9.82;8.85;;;9.60;99.90;;;;;;5099190;28;20191;-87
2022/11/17 10:02:34;;;;;;;12.50;9.68;;;9.70;99.90;;;;;;5093277;28;20224;-89
2022/11/17 10:05:03;;;;;;;10.90;8.55;;;9.70;99.90;;;;;;5093555;28;20208;-89
2022/11/17 10:07:34;;;;;;;13.02;10.07;;;9.70;99.90;;;;;;5093241;28;20197;-88
2022/11/17 10:10:05;;;;;;;16.67;11.23;;;9.60;99.90;;;;;;5089662;28;20231;-89
2022/11/17 10:12:43;;;;;;;11.70;10.60;;;9.60;99.90;;;;;;5093491;28;20236;-88
2022/11/17 10:15:28;;;;;;;12.98;11.68;;;9.60;99.90;;;;;;5094018;28;20204;-88
2022/11/17 10:18:09;;;;;;;24.33;12.10;;;9.50;99.90;;;;;;5106527;28;20224;-89
2022/11/17 10:20:37;;;;;;;13.85;11.77;;;9.60;99.90;;;;;;5094966;28;20200;-88
2022/11/17 10:23:06;;;;;;;11.75;10.35;;;9.50;99.90;;;;;;5113605;28;20251;-89
2022/11/17 10:25:37;;;;;;;19.60;11.48;;;9.50;99.90;;;;;;5113402;28;20225;-89
2022/11/17 10:28:24;;;;;;;13.32;11.45;;;9.50;99.90;;;;;;5113256;28;20259;-89
2022/11/17 10:31:10;;;;;;;12.98;9.30;;;9.50;99.90;;;;;;5113224;28;20195;-89
2022/11/17 10:33:43;;;;;;;10.63;9.48;;;9.60;99.90;;;;;;5093932;28;20211;-89
2022/11/17 10:36:20;;;;;;;11.57;10.43;;;9.50;99.90;;;;;;5114092;28;20207;-89
2022/11/17 10:38:51;;;;;;;12.40;10.50;;;9.50;99.90;;;;;;5113082;28;20223;-89
2022/11/17 10:41:23;;;;;;;12.02;10.75;;;9.50;99.90;;;;;;5113361;28;20204;-89
2022/11/17 10:44:04;;;;;;;13.60;11.85;;;9.50;99.90;;;;;;5113799;28;20214;-89
2022/11/17 10:46:33;;;;;;;13.48;11.10;;;9.50;99.90;;;;;;5108922;28;20249;-88
2022/11/17 10:49:25;;;;;;;10.48;9.48;;;9.40;99.90;;;;;;5092745;28;20204;-89
2022/11/17 10:52:10;;;;;;;11.57;10.43;;;9.40;99.90;;;;;;5092825;28;20230;-89
2022/11/17 10:54:38;;;;;;;12.30;11.02;;;9.50;99.90;;;;;;5092958;28;20252;-89
2022/11/17 10:57:15;;;;;;;13.27;10.48;;;9.40;99.90;;;;;;5092850;28;20267;-89
2022/11/17 10:59:56;;;;;;;;;;;;;;;;;;;;;
2022/11/17 11:02:30;;;;;;;13.90;11.13;;;9.40;99.90;;;;;;5072195;28;20236;-88
2022/11/17 11:05:12;;;;;;;12.57;10.85;;;9.40;99.90;;;;;;5072804;28;20207;-88
2022/11/17 11:07:41;;;;;;;10.18;9.23;;;9.40;99.90;;;;;;5072418;28;20211;-88
2022/11/17 11:10:22;;;;;;;12.60;10.13;;;9.40;99.90;;;;;;5072207;28;20215;-89
2022/11/17 11:13:05;;;;;;;18.95;10.00;;;9.40;99.90;;;;;;5092353;28;20221;-88
2022/11/17 11:15:36;;;;;;;12.93;9.90;;;9.40;99.90;;;;;;5086752;28;20206;-90
2022/11/17 11:18:12;;;;;;;13.55;10.57;;;9.40;99.90;;;;;;5095264;28;20226;-88
2022/11/17 11:20:47;;;;;;;12.20;10.80;;;9.40;99.90;;;;;;5113223;28;20207;-86
2022/11/17 11:23:23;;;;;;;11.52;9.48;;;9.40;99.90;;;;;;5109221;28;20227;-84
2022/11/17 11:25:57;;;;;;;16.55;10.48;;;9.40;99.90;;;;;;5092198;28;20202;-89
2022/11/17 11:28:37;;;;;;;15.15;10.95;;;9.40;99.90;;;;;;5092105;28;20197;-91
2022/11/17 11:31:30;;;;;;;14.38;9.32;;;9.40;99.90;;;;;;5092146;28;20224;-88
2022/11/17 11:34:14;;;;;;;10.77;9.65;;;9.40;99.90;;;;;;5098475;28;20226;-85
2022/11/17 11:36:49;;;;;;;14.80;10.73;;;9.40;99.90;;;;;;5093903;28;20196;-87
2022/11/17 11:39:36;;;;;;;10.60;9.45;;;9.40;99.90;;;;;;5096443;28;20303;-88
2022/11/17 11:42:23;;;;;;;11.48;9.88;;;9.40;99.90;;;;;;5096363;28;20231;-88
2022/11/17 11:45:17;;;;;;;11.85;9.80;;;9.40;99.90;;;;;;5096703;28;20201;-88
2022/11/17 11:48:10;;;;;;;9.90;9.00;;;9.40;99.90;;;;;;5095424;28;20202;-89
2022/11/17 11:50:52;;;;;;;9.88;8.88;;;9.40;99.90;;;;;;5096375;28;20196;-89
2022/11/17 11:53:28;;;;;;;10.93;8.65;;;9.50;99.90;;;;;;5096498;28;20247;-88
2022/11/17 11:56:33;;;;;;;11.25;9.23;;;9.50;99.90;;;;;;5096260;28;20210;-87
2022/11/17 11:59:05;;;;;;;10.32;8.80;;;9.50;99.90;;;;;;5095775;28;20220;-88
2022/11/17 12:01:47;;;;;;;14.18;9.57;;;9.50;99.90;;;;;;5095324;28;20216;-88
2022/11/17 12:04:26;;;;;;;11.05;8.90;;;9.50;99.90;;;;;;5095532;28;20216;-89
2022/11/17 12:07:03;;;;;;;10.20;8.98;;;9.50;99.90;;;;;;5095984;28;20299;-89
2022/11/17 12:09:58;;;;;;;11.75;8.65;;;9.40;99.90;;;;;;5095796;28;20207;-88
2022/11/17 12:12:30;;;;;;;9.57;7.65;;;9.40;99.90;;;;;;5109506;28;20219;-88
2022/11/17 12:15:12;;;;;;;25.27;9.55;;;9.30;99.90;;;;;;5116132;28;20226;-88
2022/11/17 12:17:58;;;;;;;15.10;9.00;;;9.30;99.90;;;;;;5115965;28;20207;-88
2022/11/17 12:20:55;;;;;;;9.95;8.95;;;9.30;99.90;;;;;;5108520;28;20197;-87
2022/11/17 12:24:02;;;;;;;9.38;8.00;;;9.20;99.90;;;;;;5110013;28;20227;-88
2022/11/17 12:26:33;;;;;;;8.27;7.50;;;9.20;99.90;;;;;;5106112;28;20203;-87
2022/11/17 12:29:30;;;;;;;16.27;7.82;;;9.10;99.90;;;;;;5095484;28;20211;-88
2022/11/17 12:32:01;;;;;;;7.97;7.22;;;9.10;99.90;;;;;;5095017;28;20315;-87
2022/11/17 12:34:31;;;;;;;9.57;8.57;;;9.10;99.90;;;;;;5095562;28;20209;-88
2022/11/17 12:37:29;;;;;;;8.77;7.82;;;9.00;99.90;;;;;;5095184;28;20201;-88
2022/11/17 12:40:06;;;;;;;9.10;8.20;;;9.00;99.90;;;;;;5095054;28;20244;-88
2022/11/17 12:42:37;;;;;;;8.93;7.72;;;9.00;99.90;;;;;;5095413;28;20315;-88
2022/11/17 12:45:10;;;;;;;10.95;9.15;;;9.10;99.90;;;;;;5096180;28;20207;-88
2022/11/17 12:47:40;;;;;;;11.63;9.18;;;9.00;99.90;;;;;;5101715;28;20204;-88
2022/11/17 12:50:38;;;;;;;10.93;8.93;;;9.00;99.90;;;;;;5108708;28;20206;-89
2022/11/17 12:53:31;;;;;;;12.07;8.90;;;9.00;99.90;;;;;;5098040;28;20223;-92
2022/11/17 12:56:29;;;;;;;7.95;7.25;;;9.00;99.90;;;;;;5106792;28;20252;-93
2022/11/17 12:59:43;;;;;;;10.40;8.55;;;9.00;99.90;;;;;;5072094;28;20222;-91
2022/11/17 13:02:39;;;;;;;9.63;8.60;;;9.00;99.90;;;;;;5076561;28;20240;-91
2022/11/17 13:05:21;;;;;;;10.65;8.10;;;9.00;99.90;;;;;;5075361;28;20204;-92
2022/11/17 13:07:56;;;;;;;11.55;9.82;;;9.00;99.90;;;;;;5074559;28;20292;-91
2022/11/17 13:10:37;;;;;;;9.57;8.27;;;9.00;99.90;;;;;;5074358;28;20201;-92
2022/11/17 13:13:14;;;;;;;11.68;8.45;;;9.10;99.90;;;;;;5073362;28;20221;-91
2022/11/17 13:16:02;;;;;;;8.13;7.35;;;9.10;99.90;;;;;;5074805;28;20217;-91
2022/11/17 13:18:48;;;;;;;34.35;9.57;;;9.20;99.90;;;;;;5074223;28;20205;-91
2022/11/17 13:21:31;;;;;;;9.55;8.68;;;9.10;99.90;;;;;;5074430;28;20212;-91
2022/11/17 13:24:42;;;;;;;15.43;8.80;;;9.10;99.90;;;;;;5074580;28;20208;-90
2022/11/17 13:27:35;;;;;;;9.27;8.38;;;9.20;99.90;;;;;;5074075;28;20201;-92
2022/11/17 13:30:30;;;;;;;9.02;8.15;;;9.10;99.90;;;;;;5073787;28;20243;-91
2022/11/17 13:33:57;;;;;;;10.48;8.32;;;9.10;99.90;;;;;;5074163;28;20284;-90
2022/11/17 13:36:57;;;;;;;7.90;7.07;;;9.00;99.90;;;;;;5074623;28;20270;-90
2022/11/17 13:39:28;;;;;;;9.27;8.35;;;8.90;99.90;;;;;;5074179;28;20229;-92
2022/11/17 13:45:02;;;;;;;8.32;7.53;;;8.80;99.90;;;;;;5073473;28;20278;-91
2022/11/17 13:47:46;;;;;;;8.60;7.20;;;8.80;99.90;;;;;;5073838;28;20205;-92
2022/11/17 13:50:53;;;;;;;7.78;7.07;;;8.80;99.90;;;;;;5073512;28;20197;-91
2022/11/17 13:53:44;;;;;;;10.50;7.32;;;8.80;99.90;;;;;;5073653;28;20323;-91
2022/11/17 13:59:51;;;;;;;11.82;7.38;;;8.90;99.90;;;;;;5072220;28;20230;-91
2022/11/17 14:02:32;;;;;;;13.30;8.68;;;8.90;99.90;;;;;;5073534;28;20228;-90
2022/11/17 14:05:21;;;;;;;9.50;8.00;;;9.00;99.90;;;;;;5073615;28;20196;-91
2022/11/17 14:11:30;;;;;;;13.20;7.90;;;9.00;99.90;;;;;;5072699;28;20225;-91
2022/11/17 14:14:31;;;;;;;9.43;8.38;;;9.00;99.90;;;;;;5073403;28;20231;-91
2022/11/17 14:17:41;;;;;;;8.35;7.53;;;9.00;99.90;;;;;;5077153;28;20211;-90
2022/11/17 14:20:33;;;;;;;7.60;6.85;;;9.00;99.90;;;;;;5069888;28;20298;-90
2022/11/17 14:23:16;;;;;;;7.25;6.55;;;9.00;99.90;;;;;;5073250;28;20228;-91
2022/11/17 14:26:05;;;;;;;8.10;7.40;;;9.00;99.90;;;;;;5072661;28;20212;-91
2022/11/17 14:28:37;;;;;;;9.35;7.28;;;9.00;99.90;;;;;;5073074;28;20346;-92
2022/11/17 14:31:13;;;;;;;11.13;8.40;;;9.00;99.90;;;;;;5073079;28;20235;-91
2022/11/17 14:33:55;;;;;;;9.00;7.85;;;9.00;99.90;;;;;;5072870;28;20236;-92
2022/11/17 14:36:25;;;;;;;7.78;7.07;;;9.00;99.90;;;;;;5072791;28;20231;-91
2022/11/17 14:39:06;;;;;;;8.63;7.57;;;9.10;99.90;;;;;;5072889;28;20215;-91
2022/11/17 14:41:40;;;;;;;9.07;7.57;;;9.10;99.90;;;;;;5072290;28;20216;-91
2022/11/17 14:44:29;;;;;;;6.78;6.15;;;9.00;99.90;;;;;;5071022;28;20295;-90